Latest Weather Observations for Adelaide (West Terrace / ngayirdapira)

IDS60801

Issued at 2:41 pm CST Sunday 5 April 2020 (issued every 10 minutes, with the page automatically refreshed every 10 minutes)

About weather observations | Map of weather stations | Latest weather observations for SA | Other Formats
Station Details ID: 023000 Name: ADELAIDE (WEST TERRACE / NGAYIRDAPIRA) Lat: -34.93 Lon: 138.58 Height: 29.32 m
Data from the previous 72 hours. | See also: Recent months at Adelaide (West Terrace / ngayirdapira)
Date/Time
CST
Temp
°C
App
Temp
°C
Dew
Point
°C
Rel
Hum
%
Delta-T
°C
Wind Press
QNH
hPa
Press
MSL
hPa
Rain since
9am
mm
Dir  Spd
km/h
Gust
km/h
Spd
kts
Gust
kts
05/02:31pm 16.9 15.1 13.4 80 2.0 W 15 20 8 11 1016.2 1016.1 0.8
05/02:30pm 17.0 15.7 13.7 81 1.9 W 13 20 7 11 1016.2 1016.1 0.8
05/02:08pm 16.9 13.9 13.6 81 1.9 W 22 35 12 19 1016.3 1016.2 0.8
05/02:00pm 18.2 15.3 12.2 68 3.3 WNW 19 33 10 18 1016.1 1016.0 0.0
05/01:30pm 19.5 16.3 11.3 59 4.5 W 19 30 10 16 1016.2 1016.1 0.0
05/01:00pm 19.7 16.2 10.9 57 4.8 W 20 32 11 17 1016.4 1016.3 0.0
05/12:30pm 19.2 15.9 11.5 61 4.2 W 20 32 11 17 1016.4 1016.3 0.0
05/12:00pm 19.2 15.8 11.3 60 4.3 W 20 32 11 17 1016.5 1016.4 0.0
05/11:30am 18.5 15.1 11.3 63 3.9 W 20 32 11 17 1016.7 1016.6 0.0
05/11:00am 17.5 14.0 10.9 65 3.6 W 20 35 11 19 1016.8 1016.7 0.0
05/10:30am 17.4 14.0 11.4 68 3.3 W 20 30 11 16 1016.9 1016.8 0.0
05/10:00am 17.2 13.9 11.0 67 3.3 W 19 28 10 15 1016.8 1016.7 0.0
05/09:30am 16.7 13.4 11.0 69 3.1 W 19 35 10 19 1016.8 1016.7 0.0
05/09:13am 15.9 12.7 11.3 74 2.5 W 19 32 10 17 1016.7 1016.6 0.0
05/09:00am 14.9 12.6 11.9 82 1.6 WSW 15 26 8 14 1016.6 1016.5 1.2
05/08:53am 14.7 11.1 11.8 83 1.6 WSW 22 39 12 21 1016.8 1016.7 1.2
05/08:30am 16.5 12.9 9.9 65 3.5 W 19 35 10 19 1016.4 1016.3 1.2
05/08:00am 15.8 12.5 9.7 67 3.2 W 17 30 9 16 1016.1 1016.0 1.2
05/07:30am 16.1 12.2 9.3 64 3.5 W 20 32 11 17 1015.6 1015.5 1.2
05/07:00am 15.4 12.2 10.0 70 2.8 W 17 30 9 16 1015.3 1015.2 1.2
05/06:30am 15.5 12.0 10.3 71 2.7 W 19 30 10 16 1014.9 1014.8 1.2
05/06:00am 15.4 11.8 10.0 70 2.8 W 19 30 10 16 1014.7 1014.6 1.2
05/05:30am 15.1 12.4 10.5 74 2.4 WSW 15 28 8 15 1014.4 1014.3 1.2
05/05:00am 15.2 11.8 9.3 68 3.0 W 17 28 9 15 1014.3 1014.2 1.2
05/04:30am 15.3 12.1 9.9 70 2.8 W 17 32 9 17 1014.1 1014.0 1.2
05/04:00am 15.1 11.8 9.5 69 2.9 W 17 26 9 14 1014.0 1013.9 1.2
05/03:30am 14.5 11.7 10.1 75 2.3 W 15 24 8 13 1013.9 1013.8 1.2
05/03:00am 14.7 10.6 10.1 74 2.4 W 22 39 12 21 1014.0 1013.9 1.2
05/03:30am 15.3 12.3 9.2 67 3.1 W 15 24 8 13 1014.0 1013.9 1.2
05/03:00am 15.3 11.6 9.4 68 3.0 W 19 30 10 16 1014.1 1014.0 1.2
05/02:30am 15.0 12.1 9.8 71 2.7 WSW 15 26 8 14 1014.2 1014.1 1.2
05/02:00am 15.0 11.7 9.6 70 2.8 WSW 17 28 9 15 1014.1 1014.0 1.2
05/01:30am 15.3 12.0 9.7 69 2.9 W 17 28 9 15 1014.2 1014.1 1.2
05/01:00am 14.6 12.2 10.0 74 2.4 W 13 20 7 11 1014.2 1014.1 1.2
05/12:30am 14.5 11.4 10.3 76 2.2 WSW 17 26 9 14 1014.3 1014.2 1.2
05/12:00am 13.9 11.8 9.9 77 2.1 W 11 17 6 9 1014.5 1014.4 1.2
 
Date/Time
CST
Temp
°C
App
Temp
°C
Dew
Point
°C
Rel
Hum
%
Delta-T
°C
Wind Press
QNH
hPa
Press
MSL
hPa
Rain since
9am
mm
Dir  Spd
km/h
Gust
km/h
Spd
kts
Gust
kts
04/11:30pm 14.0 11.2 11.5 85 1.3 W 17 28 9 15 1014.8 1014.7 1.2
04/11:00pm 14.6 12.2 10.0 74 2.4 W 13 24 7 13 1014.6 1014.5 1.2
04/10:30pm 14.3 9.3 10.9 80 1.8 W 28 43 15 23 1014.7 1014.6 1.2
04/10:00pm 14.9 13.4 10.5 75 2.3 SW 9 15 5 8 1014.4 1014.3 1.2
04/09:30pm 14.8 12.5 10.4 75 2.3 SSW 13 24 7 13 1014.2 1014.1 1.2
04/09:00pm 15.2 11.2 8.9 66 3.2 WSW 20 35 11 19 1014.0 1013.9 1.2
04/08:30pm 15.0 13.2 10.8 76 2.2 SSW 11 19 6 10 1013.7 1013.6 1.2
04/08:00pm 15.3 11.6 10.1 71 2.7 WSW 20 37 11 20 1013.5 1013.4 1.2
04/07:30pm 15.6 12.1 8.8 64 3.5 WSW 17 28 9 15 1013.0 1012.9 1.2
04/07:00pm 15.6 11.7 9.3 66 3.3 WSW 20 30 11 16 1012.9 1012.8 1.2
04/06:30pm 15.8 10.8 9.7 67 3.2 SW 26 41 14 22 1012.5 1012.4 1.2
04/06:00pm 16.6 12.0 8.3 58 4.2 WSW 22 39 12 21 1011.9 1011.8 1.2
04/05:30pm 16.0 13.5 11.2 73 2.6 SW 15 26 8 14 1011.7 1011.6 1.2
04/05:00pm 16.1 11.0 10.6 70 2.9 WSW 28 50 15 27 1011.6 1011.5 0.8
04/04:30pm 17.0 11.6 9.4 61 4.0 WSW 28 50 15 27 1011.2 1011.1 0.8
04/04:00pm 17.5 11.8 9.7 60 4.1 WSW 30 52 16 28 1011.1 1011.0 0.8
04/03:30pm 17.2 12.0 10.1 63 3.8 WSW 28 48 15 26 1011.0 1010.9 0.8
04/03:13pm 18.0 12.4 8.8 55 4.8 WSW 28 46 15 25 1010.9 1010.8 0.8
04/03:00pm 17.4 12.0 9.6 60 4.1 WSW 28 44 15 24 1010.8 1010.7 0.8
04/02:36pm 17.3 11.8 9.0 58 4.3 WSW 28 50 15 27 - - 0.8
04/02:30pm 16.7 12.1 9.6 63 3.7 WSW 24 50 13 27 - - 0.8
04/02:00pm 17.6 11.9 8.5 55 4.7 WSW 28 50 15 27 1010.6 1010.5 0.8
04/01:34pm 17.2 11.6 8.6 57 4.4 WSW 28 48 15 26 1010.5 1010.4 0.8
04/01:30pm 17.2 12.7 9.9 62 3.9 WSW 24 44 13 24 1010.6 1010.5 0.8
04/01:08pm 16.9 12.1 10.3 65 3.5 WSW 26 41 14 22 1010.7 1010.6 0.8
04/01:00pm 15.9 12.6 11.7 76 2.3 WSW 20 35 11 19 1010.7 1010.6 0.8
04/12:50pm 14.9 9.9 10.9 77 2.1 WSW 28 52 15 28 1010.8 1010.7 0.8
04/12:31pm 17.6 12.1 9.2 58 4.4 WSW 28 46 15 25 1010.5 1010.4 0.4
04/12:30pm 17.4 12.3 9.3 59 4.2 WSW 26 43 14 23 1010.5 1010.4 0.4
04/12:15pm 17.1 11.5 8.8 58 4.3 WSW 28 54 15 29 1010.6 1010.5 0.4
04/12:00pm 16.4 11.3 9.3 63 3.7 WSW 26 46 14 25 1010.5 1010.4 0.4
04/11:30am 16.3 11.5 8.8 61 3.9 WSW 24 39 13 21 1010.5 1010.4 0.4
04/11:13am 15.6 12.2 10.4 71 2.7 WSW 19 35 10 19 1010.4 1010.3 0.4
04/11:00am 14.0 10.5 11.0 82 1.6 SW 20 43 11 23 1010.4 1010.3 0.4
04/10:56am 14.4 10.5 10.8 79 1.9 WSW 22 43 12 23 1010.6 1010.5 0.4
04/10:30am 16.3 10.5 8.0 58 4.2 SW 28 43 15 23 1010.3 1010.2 0.0
04/10:00am 16.4 11.3 7.6 56 4.4 WSW 24 41 13 22 1010.0 1009.9 0.0
04/09:30am 16.0 10.9 7.7 58 4.2 SW 24 39 13 21 1009.6 1009.5 0.0
04/09:00am 15.5 11.2 7.8 60 3.9 SW 20 35 11 19 1009.4 1009.3 21.4
04/08:30am 14.8 10.0 7.4 61 3.7 WSW 22 41 12 22 1008.7 1008.6 21.4
04/08:00am 14.5 10.0 7.1 61 3.6 WSW 20 35 11 19 1008.2 1008.1 21.4
04/07:30am 14.4 10.1 7.7 64 3.3 SW 20 37 11 20 1007.9 1007.8 21.4
04/07:00am 13.6 10.2 9.1 74 2.3 WSW 17 26 9 14 1007.4 1007.3 21.2
04/06:30am 14.7 9.8 6.8 59 3.9 SW 22 35 12 19 1007.0 1006.9 21.2
04/06:00am 14.5 10.0 7.1 61 3.6 SW 20 32 11 17 1006.6 1006.5 21.2
04/05:30am 14.6 10.2 7.6 63 3.5 SW 20 39 11 21 1006.3 1006.2 21.2
04/05:00am 14.7 9.7 6.5 58 4.0 SW 22 35 12 19 1006.0 1005.9 21.2
04/04:30am 14.6 10.4 7.4 62 3.6 SW 19 30 10 16 1005.7 1005.6 21.2
04/04:00am 14.7 9.9 7.3 61 3.6 SW 22 43 12 23 1005.5 1005.4 21.2
04/03:30am 15.0 9.7 8.5 65 3.3 SW 26 44 14 24 1005.2 1005.1 21.2
04/03:00am 14.5 9.9 9.5 72 2.6 SW 24 43 13 23 1005.0 1004.9 21.2
04/02:37am 13.4 9.9 10.9 85 1.3 SW 20 39 11 21 1004.8 1004.7 21.2
04/02:30am 13.3 9.7 10.5 83 1.5 SW 20 39 11 21 1004.8 1004.7 21.2
04/02:20am 13.7 10.3 11.2 85 1.3 SW 20 41 11 22 1004.7 1004.6 20.8
04/02:00am 14.3 9.8 10.1 76 2.2 SW 24 37 13 20 1004.4 1004.3 20.2
04/01:30am 14.2 11.4 11.2 82 1.6 WSW 17 33 9 18 1004.0 1003.9 20.2
04/01:00am 14.0 10.7 11.0 82 1.6 W 19 32 10 17 1003.8 1003.7 19.6
04/12:54am 13.7 10.9 11.4 86 1.2 W 17 28 9 15 1003.9 1003.8 19.6
04/12:35am 13.7 8.8 11.4 86 1.2 W 28 54 15 29 1003.9 1003.8 19.6
04/12:30am 14.4 11.0 11.4 82 1.6 W 20 37 11 20 1003.8 1003.7 18.8
04/12:24am 13.9 10.4 10.9 82 1.6 W 20 32 11 17 1003.8 1003.7 18.8
04/12:00am 14.0 10.8 11.2 83 1.5 W 19 33 10 18 1003.8 1003.7 17.4
 
Date/Time
CST
Temp
°C
App
Temp
°C
Dew
Point
°C
Rel
Hum
%
Delta-T
°C
Wind Press
QNH
hPa
Press
MSL
hPa
Rain since
9am
mm
Dir  Spd
km/h
Gust
km/h
Spd
kts
Gust
kts
03/11:45pm 13.2 8.3 8.3 72 2.4 WSW 24 43 13 23 1003.9 1003.8 17.2
03/11:34pm 14.7 10.5 9.7 72 2.6 WSW 22 39 12 21 1003.9 1003.8 16.0
03/11:30pm 14.5 10.3 9.7 73 2.5 WSW 22 39 12 21 1004.0 1003.9 16.0
03/11:20pm 14.0 9.0 11.0 82 1.6 WSW 28 48 15 26 1003.9 1003.8 16.0
03/11:15pm 14.1 9.8 10.9 81 1.7 WSW 24 48 13 26 1004.1 1004.0 15.6
03/11:00pm 15.0 12.1 11.0 77 2.1 W 17 32 9 17 1003.6 1003.5 14.6
03/10:30pm 14.2 9.3 9.8 75 2.3 WSW 26 50 14 27 1003.3 1003.2 14.4
03/10:00pm 15.3 11.7 9.7 69 2.9 WSW 19 35 10 19 1003.1 1003.0 14.4
03/09:30pm 14.9 12.6 11.7 81 1.7 W 15 26 8 14 1002.7 1002.7 14.4
03/09:00pm 14.2 12.6 11.4 83 1.5 W 11 20 6 11 1002.9 1002.8 14.4
03/08:45pm 14.2 12.4 12.2 88 1.1 W 13 19 7 10 1002.7 1002.7 14.2
03/08:30pm 14.3 11.4 12.2 87 1.1 W 19 33 10 18 1002.9 1002.8 14.2
03/08:25pm 14.9 12.9 12.8 87 1.2 W 15 32 8 17 1003.0 1002.9 14.2
03/08:00pm 15.0 13.9 13.2 89 1.0 WSW 11 19 6 10 1002.7 1002.7 13.4
03/07:45pm 14.8 13.7 13.2 90 0.9 WSW 11 19 6 10 1002.1 1002.1 13.2
03/07:34pm 14.9 14.0 13.6 92 0.7 W 11 15 6 8 1002.5 1002.5 13.0
03/07:30pm 15.0 14.5 13.7 92 0.7 W 9 15 5 8 1002.6 1002.6 12.8
03/07:18pm 14.8 13.8 13.5 92 0.7 W 11 19 6 10 1002.4 1002.4 12.4
03/07:00pm 14.7 14.6 13.4 92 0.7 SW 6 13 3 7 1002.0 1002.0 11.4
03/06:30pm 14.2 12.8 12.2 88 1.1 SW 11 17 6 9 1002.3 1002.3 9.4
03/06:28pm 14.2 12.4 12.1 87 1.1 SW 13 22 7 12 1002.3 1002.3 9.0
03/06:13pm 14.0 11.7 11.7 86 1.2 SW 15 26 8 14 1002.2 1002.2 8.0
03/06:00pm 14.4 11.5 12.4 88 1.1 SW 19 33 10 18 1002.0 1002.0 7.8
03/05:30pm 15.0 12.5 13.4 90 0.9 SW 19 33 10 18 1001.4 1001.4 4.8
03/05:05pm 15.8 12.6 14.3 91 0.9 WSW 24 39 13 21 1001.1 1001.1 3.2
03/05:00pm 15.6 12.0 14.1 91 0.8 WSW 26 48 14 26 1001.0 1001.0 3.0
03/04:49pm 16.1 12.3 14.6 91 0.9 WSW 28 48 15 26 1000.9 1000.9 2.2
03/04:36pm 16.8 12.5 14.3 85 1.4 W 30 65 16 35 1000.7 1000.7 1.0
03/04:35pm 17.1 13.1 14.0 82 1.8 W 28 65 15 35 1000.6 1000.6 0.6
03/04:30pm 20.4 17.4 12.6 61 4.4 W 20 33 11 18 1000.0 1000.0 0.0
03/04:00pm 22.6 19.2 10.4 46 6.7 W 19 30 10 16 999.7 999.7 0.0
03/03:30pm 23.5 19.5 8.4 38 8.1 W 19 30 10 16 999.7 999.7 0.0
03/03:00pm 22.7 19.5 9.8 44 7.0 W 17 26 9 14 1000.0 1000.0 0.0
03/02:30pm 22.3 19.7 12.0 52 5.8 WNW 17 24 9 13 1000.4 1000.4 0.0
03/02:00pm 23.9 20.7 9.9 41 7.7 WNW 17 26 9 14 1000.5 1000.5 0.0
03/01:30pm 23.5 20.9 10.6 44 7.2 WNW 15 28 8 15 1001.3 1001.3 0.0
03/01:00pm 23.1 20.3 11.2 47 6.6 NW 17 28 9 15 1001.6 1001.6 0.0
03/12:30pm 22.5 19.7 11.3 49 6.3 WNW 17 26 9 14 1002.0 1002.0 0.0
03/12:00pm 22.0 19.4 12.0 53 5.7 NW 17 30 9 16 1002.5 1002.5 0.0
03/11:30am 21.5 19.7 13.4 60 4.7 NNW 15 24 8 13 1002.6 1002.6 0.0
03/11:00am 20.4 19.7 14.3 68 3.5 N 11 19 6 10 1003.0 1002.9 0.0
03/10:30am 19.5 18.5 13.4 68 3.5 N 11 17 6 9 1003.3 1003.2 0.0
03/10:00am 19.3 18.1 11.6 61 4.2 NNE 9 13 5 7 1003.6 1003.5 0.0
03/09:30am 18.4 17.1 11.2 63 3.9 N 9 13 5 7 1003.6 1003.5 0.0
03/09:00am 17.1 15.7 10.9 67 3.3 NNE 9 13 5 7 1003.6 1003.5 0.0
03/08:30am 15.9 16.0 11.5 75 2.4 NNE 2 9 1 5 1003.6 1003.5 0.0
03/08:00am 15.4 14.2 11.6 78 2.0 NE 9 13 5 7 1003.2 1003.1 0.0
03/07:30am 15.7 14.8 11.3 75 2.4 NE 7 13 4 7 1003.1 1003.0 0.0
03/07:00am 15.1 14.2 11.3 78 2.0 NE 7 9 4 5 1003.1 1003.0 0.0
03/06:30am 14.6 13.7 11.2 80 1.8 NE 7 9 4 5 1003.3 1003.2 0.0
03/06:00am 16.4 16.1 12.6 78 2.1 ESE 6 9 3 5 1003.4 1003.3 0.0
03/05:30am 15.2 14.9 11.4 78 2.0 SSE 4 7 2 4 1003.8 1003.7 0.0
03/05:00am 15.5 16.0 11.5 77 2.2 CALM 0 7 0 4 1003.8 1003.7 0.0
03/04:30am 15.7 16.2 11.7 77 2.2 CALM 0 0 0 0 1004.1 1004.0 0.0
03/04:00am 16.0 16.6 11.8 76 2.3 CALM 0 0 0 0 1003.8 1003.7 0.0
03/03:30am 16.5 17.0 11.6 73 2.7 CALM 0 0 0 0 1004.2 1004.1 0.0
03/03:00am 17.3 17.8 11.6 69 3.1 CALM 0 0 0 0 1004.8 1004.7 0.0
03/02:30am 17.2 16.4 11.0 67 3.4 SSE 6 7 3 4 1005.3 1005.2 0.0
03/02:00am 17.2 17.2 11.0 67 3.3 S 2 7 1 4 1005.8 1005.7 0.0
03/01:30am 17.3 17.2 10.7 65 3.5 SW 2 9 1 5 1006.0 1005.9 0.0
03/01:00am 17.7 17.2 10.6 63 3.8 NE 4 7 2 4 1005.8 1005.7 0.0
03/12:30am 18.5 18.6 10.3 59 4.4 CALM 0 0 0 0 1006.0 1005.9 0.0
03/12:00am 17.8 16.8 10.2 61 4.1 ENE 6 7 3 4 1006.2 1006.1 0.0
 
Date/Time
CST
Temp
°C
App
Temp
°C
Dew
Point
°C
Rel
Hum
%
Delta-T
°C
Wind Press
QNH
hPa
Press
MSL
hPa
Rain since
9am
mm
Dir  Spd
km/h
Gust
km/h
Spd
kts
Gust
kts
02/11:30pm 17.8 18.0 10.7 63 3.8 CALM 0 0 0 0 1006.7 1006.6 0.0
02/11:00pm 18.0 18.3 10.9 63 3.8 CALM 0 0 0 0 1007.1 1007.0 0.0
02/10:30pm 17.9 18.3 11.2 65 3.6 CALM 0 0 0 0 1007.2 1007.1 0.0
02/10:00pm 18.1 18.3 10.7 62 4.0 CALM 0 0 0 0 1007.5 1007.4 0.0
02/09:30pm 18.6 18.8 10.4 59 4.4 CALM 0 0 0 0 1007.5 1007.4 0.0
02/09:00pm 19.6 18.3 10.0 54 5.2 ESE 7 9 4 5 1007.6 1007.5 0.0
02/08:30pm 20.1 19.1 10.2 53 5.4 SE 6 7 3 4 1007.7 1007.6 0.0
02/08:00pm 20.4 19.4 10.2 52 5.5 SE 6 7 3 4 1007.7 1007.6 0.0
02/07:30pm 21.0 21.1 10.2 50 5.9 CALM 0 6 0 3 1007.7 1007.6 0.0
02/07:00pm 21.8 20.5 10.0 47 6.4 SW 7 9 4 5 1007.4 1007.3 0.0
02/06:30pm 22.5 21.3 10.3 46 6.7 WSW 7 11 4 6 1007.2 1007.1 0.0
02/06:00pm 23.6 21.9 9.9 42 7.5 WSW 9 15 5 8 1007.2 1007.1 0.0
02/05:30pm 23.9 21.9 10.2 42 7.6 SW 11 15 6 8 1007.3 1007.2 0.0
02/05:00pm 24.2 22.0 9.4 39 8.0 W 11 19 6 10 1007.2 1007.1 0.0
02/04:30pm 24.4 22.2 9.2 38 8.3 WNW 11 17 6 9 1007.5 1007.4 0.0
02/04:00pm 24.1 21.9 9.3 39 8.0 W 11 15 6 8 1007.8 1007.7 0.0

Other formats

Comma delimited format used in spreadsheet applications
http://www.bom.gov.au/fwo/IDS60801/IDS60801.94648.axf

JavaScript Object Notation format (JSON) in row-major order
http://www.bom.gov.au/fwo/IDS60801/IDS60801.94648.json

Data quality

Most of these data are generated automatically and are frequently updated. Quality checks on data are not normally performed. It is possible for incorrect values to appear. Refer to information at About Latest Weather Observations and please check the disclaimer before using these data.